Time;durP1;ratioP1;P1;durP2;ratioP2;P2;SDS_P1;SDS_P2;PMS_P1;PMS_P2;Temp;Humidity;BMP_temperature;BMP_pressure;BME280_temperature;BME280_humidity;BME280_pressure;Samples;Min_cycle;Max_cycle;Signal;HPM_P1;HPM_P2
2022/06/16 00:02:01;;;;;;;1.00;1.00;;;23.20;69.30;;;;;;5078522;28;45511;-69
2022/06/16 00:04:30;;;;;;;1.00;1.00;;;23.40;68.70;;;;;;5066389;28;43606;-69
2022/06/16 00:06:59;;;;;;;1.10;1.10;;;23.50;68.00;;;;;;5060037;28;43885;-70
2022/06/16 00:09:27;;;;;;;1.00;1.00;;;23.60;67.50;;;;;;5060664;28;43802;-70
2022/06/16 00:11:55;;;;;;;0.90;0.90;;;23.80;67.10;;;;;;5058438;28;44034;-70
2022/06/16 00:14:27;;;;;;;0.90;0.90;;;23.90;66.70;;;;;;5064628;28;46296;-69
2022/06/16 00:16:55;;;;;;;1.00;1.00;;;23.90;66.60;;;;;;5060462;28;44048;-69
2022/06/16 00:19:24;;;;;;;1.13;1.13;;;23.70;66.90;;;;;;5066921;28;43972;-70
2022/06/16 00:21:52;;;;;;;0.97;0.97;;;23.60;67.20;;;;;;5064394;28;46149;-69
2022/06/16 00:24:20;;;;;;;1.00;1.00;;;23.40;67.70;;;;;;5065918;28;43946;-70
2022/06/16 00:26:49;;;;;;;1.00;1.00;;;23.20;68.30;;;;;;5065985;28;44053;-70
2022/06/16 00:29:17;;;;;;;0.93;0.93;;;23.10;68.80;;;;;;5065054;28;44184;-71
2022/06/16 00:31:46;;;;;;;0.90;0.90;;;23.00;69.10;;;;;;5065908;28;44792;-70
2022/06/16 00:34:15;;;;;;;1.10;1.10;;;22.80;69.30;;;;;;5064079;28;44072;-69
2022/06/16 00:36:43;;;;;;;0.87;0.87;;;22.80;69.50;;;;;;5064538;28;44044;-70
2022/06/16 00:39:11;;;;;;;1.00;1.00;;;22.70;69.70;;;;;;5064762;28;43962;-70
2022/06/16 00:41:43;;;;;;;0.93;0.93;;;22.70;70.00;;;;;;5065523;28;43959;-69
2022/06/16 00:44:15;;;;;;;1.10;1.10;;;22.60;70.00;;;;;;5065683;28;43453;-69
2022/06/16 00:46:43;;;;;;;1.10;1.10;;;22.60;70.20;;;;;;5068715;28;43897;-70
2022/06/16 00:49:13;;;;;;;1.00;1.00;;;22.50;70.20;;;;;;5067951;28;43964;-69
2022/06/16 00:51:45;;;;;;;1.07;1.07;;;22.50;70.30;;;;;;5069214;28;43880;-70
2022/06/16 00:54:15;;;;;;;1.10;1.10;;;22.50;70.30;;;;;;5067428;28;44098;-69
2022/06/16 00:56:43;;;;;;;1.10;1.10;;;22.50;70.40;;;;;;5069415;28;43974;-69
2022/06/16 00:59:14;;;;;;;1.00;1.00;;;22.50;70.50;;;;;;5069629;28;44029;-70
2022/06/16 01:01:42;;;;;;;1.00;1.00;;;22.50;70.50;;;;;;5067677;28;46131;-70
2022/06/16 01:06:57;;;;;;;1.17;1.17;;;22.60;71.20;;;;;;5061821;28;44036;-69
2022/06/16 01:09:26;;;;;;;1.20;1.20;;;22.70;70.70;;;;;;5069610;28;43960;-70
2022/06/16 01:15:10;;;;;;;1.00;1.00;;;23.20;69.30;;;;;;5066848;28;44904;-69
2022/06/16 01:17:46;;;;;;;1.10;1.10;;;23.40;68.40;;;;;;5068729;28;43940;-69
2022/06/16 01:20:21;;;;;;;1.20;1.20;;;23.60;67.90;;;;;;5069179;28;43968;-70
2022/06/16 01:23:17;;;;;;;1.20;1.20;;;23.70;67.40;;;;;;5068661;28;44031;-69
2022/06/16 01:25:52;;;;;;;1.00;1.00;;;23.90;67.00;;;;;;5067006;28;44794;-70
2022/06/16 01:28:22;;;;;;;1.20;1.20;;;24.00;66.50;;;;;;5060597;28;43903;-70
2022/06/16 01:30:55;;;;;;;1.10;1.10;;;23.90;66.40;;;;;;5062759;28;43769;-70
2022/06/16 01:33:25;;;;;;;1.10;1.10;;;23.80;66.70;;;;;;5066971;28;46403;-70
2022/06/16 01:35:57;;;;;;;1.07;1.07;;;23.60;67.10;;;;;;5066975;28;44025;-70
2022/06/16 01:38:28;;;;;;;1.10;1.10;;;23.40;67.60;;;;;;5067303;28;43930;-69
2022/06/16 01:40:57;;;;;;;1.13;1.13;;;23.30;68.20;;;;;;5067699;28;43394;-71
2022/06/16 01:43:28;;;;;;;1.13;1.13;;;23.10;68.60;;;;;;5068261;28;43967;-69
2022/06/16 01:45:59;;;;;;;1.10;1.10;;;23.00;69.00;;;;;;5066933;28;44778;-70
2022/06/16 01:48:27;;;;;;;1.00;1.00;;;22.90;69.20;;;;;;5068588;28;43870;-70
2022/06/16 01:50:58;;;;;;;1.20;1.20;;;22.80;69.40;;;;;;5067730;28;43942;-70
2022/06/16 01:53:29;;;;;;;1.20;1.20;;;22.70;69.60;;;;;;5068294;28;43945;-70
2022/06/16 01:56:03;;;;;;;1.10;1.10;;;22.70;69.80;;;;;;5066783;28;44652;-69
2022/06/16 01:58:33;;;;;;;1.10;1.10;;;22.60;69.80;;;;;;5066034;28;43426;-70
2022/06/16 02:01:10;;;;;;;1.20;1.20;;;22.60;70.10;;;;;;5067066;28;43963;-69
2022/06/16 02:03:39;;;;;;;1.20;1.20;;;22.60;70.10;;;;;;5067848;28;43883;-69
2022/06/16 02:06:10;;;;;;;1.23;1.23;;;22.50;70.10;;;;;;5066357;28;43978;-69
2022/06/16 02:08:40;;;;;;;0.90;0.90;;;22.50;70.20;;;;;;5060021;28;43438;-69
2022/06/16 02:11:12;;;;;;;1.10;1.10;;;22.50;71.00;;;;;;5060729;28;43990;-70
2022/06/16 02:13:42;;;;;;;1.20;1.20;;;22.50;70.30;;;;;;5067554;28;43904;-69
2022/06/16 02:16:14;;;;;;;1.20;1.20;;;22.50;70.50;;;;;;5066298;28;44981;-70
2022/06/16 02:18:43;;;;;;;1.37;1.37;;;22.50;71.20;;;;;;5066593;28;43853;-69
2022/06/16 02:21:13;;;;;;;1.00;1.00;;;22.60;70.90;;;;;;5066700;28;43991;-69
2022/06/16 02:23:41;;;;;;;1.30;1.30;;;22.80;70.50;;;;;;5066000;28;44019;-70
2022/06/16 02:26:12;;;;;;;1.00;1.00;;;23.00;69.80;;;;;;5066227;28;45091;-70
2022/06/16 02:28:47;;;;;;;1.00;1.00;;;23.20;69.00;;;;;;5066464;28;43481;-71
2022/06/16 02:31:47;;;;;;;1.23;1.00;;;23.40;68.30;;;;;;5066507;28;43569;-70
2022/06/16 02:34:19;;;;;;;1.10;1.10;;;23.60;67.80;;;;;;5046567;28;45040;-69
2022/06/16 02:37:09;;;;;;;1.10;1.10;;;23.80;67.20;;;;;;5067422;28;43939;-69
2022/06/16 02:39:46;;;;;;;1.20;1.20;;;23.90;66.70;;;;;;5067690;28;44104;-70
2022/06/16 02:42:18;;;;;;;1.10;1.10;;;23.90;66.40;;;;;;5068027;28;43877;-70
2022/06/16 02:44:52;;;;;;;1.10;1.10;;;23.80;66.70;;;;;;5065428;28;45801;-69
2022/06/16 02:50:08;;;;;;;1.20;1.20;;;23.40;67.60;;;;;;5065443;28;43450;-69
2022/06/16 02:52:39;;;;;;;1.20;1.17;;;23.20;68.10;;;;;;5066194;28;44415;-70
2022/06/16 02:55:08;;;;;;;1.13;1.13;;;23.10;68.70;;;;;;5065443;28;43908;-70
2022/06/16 02:57:39;;;;;;;1.17;1.17;;;23.00;69.00;;;;;;5066898;28;44012;-70
2022/06/16 03:00:10;;;;;;;1.20;1.20;;;22.80;69.10;;;;;;5067329;28;43987;-70
2022/06/16 03:02:40;;;;;;;1.20;1.20;;;22.80;69.40;;;;;;5066112;28;44093;-69
2022/06/16 03:05:09;;;;;;;1.20;1.20;;;22.70;69.60;;;;;;5067333;28;43989;-69
2022/06/16 03:07:37;;;;;;;1.30;1.30;;;22.60;69.70;;;;;;5065454;28;44114;-70
2022/06/16 03:10:50;;;;;;;1.10;1.10;;;22.60;69.80;;;;;;5064493;28;43370;-69
2022/06/16 03:13:08;;;;;;;1.30;1.30;;;22.60;70.00;;;;;;5061827;28;43964;-70
2022/06/16 03:15:36;;;;;;;1.23;1.23;;;22.50;70.00;;;;;;5065198;28;45929;-71
2022/06/16 03:18:06;;;;;;;1.40;1.40;;;22.50;70.10;;;;;;5066586;28;43956;-69
2022/06/16 03:20:34;;;;;;;1.20;1.20;;;22.50;70.10;;;;;;5067220;28;43891;-69
2022/06/16 03:23:03;;;;;;;1.40;1.40;;;22.50;70.20;;;;;;5065845;28;43892;-70
2022/06/16 03:25:31;;;;;;;1.23;1.23;;;22.50;70.20;;;;;;5058561;28;43965;-70
2022/06/16 03:27:59;;;;;;;1.20;1.20;;;22.50;70.30;;;;;;5062588;28;44411;-69
2022/06/16 03:30:31;;;;;;;1.37;1.37;;;22.50;71.50;;;;;;5065686;28;44037;-69
2022/06/16 03:33:00;;;;;;;1.13;1.13;;;22.60;70.90;;;;;;5065828;28;43963;-69
2022/06/16 03:35:29;;;;;;;1.27;1.27;;;22.70;70.50;;;;;;5065501;28;44069;-70
2022/06/16 03:37:59;;;;;;;1.00;1.00;;;23.00;69.90;;;;;;5065133;28;45983;-70
2022/06/16 03:40:27;;;;;;;1.17;1.17;;;23.20;69.20;;;;;;5065601;28;43961;-69
2022/06/16 03:42:58;;;;;;;1.03;1.03;;;23.30;68.40;;;;;;5065828;28;43878;-68
2022/06/16 03:45:29;;;;;;;1.80;1.30;;;23.50;67.90;;;;;;5065122;28;46682;-69
2022/06/16 03:47:59;;;;;;;1.60;1.60;;;23.70;67.40;;;;;;5065136;28;43800;-68
2022/06/16 03:50:29;;;;;;;2.53;1.60;;;23.80;66.80;;;;;;5065464;28;43906;-69
2022/06/16 03:52:58;;;;;;;1.90;1.80;;;23.90;66.40;;;;;;5065797;28;43933;-70
2022/06/16 03:55:28;;;;;;;2.03;1.87;;;23.90;66.40;;;;;;5065022;28;44049;-69
2022/06/16 03:57:57;;;;;;;2.47;2.23;;;23.70;66.70;;;;;;5065079;28;44005;-70
2022/06/16 04:00:31;;;;;;;3.30;2.37;;;23.60;66.90;;;;;;5059062;28;44095;-70
2022/06/16 04:05:52;;;;;;;3.53;3.20;;;23.20;67.90;;;;;;5066342;28;44074;-70
2022/06/16 04:08:20;;;;;;;3.17;2.93;;;23.00;68.30;;;;;;5066493;28;43845;-69
2022/06/16 04:10:51;;;;;;;3.30;3.10;;;22.90;68.70;;;;;;5064933;28;43423;-69
2022/06/16 04:13:19;;;;;;;5.00;3.17;;;22.80;69.00;;;;;;5065199;28;43868;-71
2022/06/16 04:15:55;;;;;;;4.00;3.50;;;22.80;69.30;;;;;;5064903;28;45720;-70
2022/06/16 04:18:23;;;;;;;4.20;3.23;;;22.70;69.50;;;;;;5064693;28;44739;-70
2022/06/16 04:20:53;;;;;;;5.87;3.50;;;22.70;69.70;;;;;;5068080;28;43881;-68
2022/06/16 04:23:45;;;;;;;5.90;4.20;;;22.60;69.70;;;;;;5058043;28;43989;-70
2022/06/16 04:26:15;;;;;;;6.13;4.03;;;22.60;70.60;;;;;;5068199;28;44769;-70
2022/06/16 04:28:47;;;;;;;6.93;3.77;;;22.60;70.10;;;;;;5069737;28;43813;-70
2022/06/16 04:31:16;;;;;;;5.70;4.20;;;22.50;70.10;;;;;;5068476;28;44111;-70
2022/06/16 04:33:44;;;;;;;7.83;4.57;;;22.50;70.10;;;;;;5068530;28;43913;-69
2022/06/16 04:36:14;;;;;;;6.87;4.47;;;22.50;70.20;;;;;;5067999;28;45651;-69
2022/06/16 04:38:53;;;;;;;6.03;4.27;;;22.50;70.30;;;;;;5068238;28;44462;-69
2022/06/16 04:41:22;;;;;;;5.50;4.13;;;22.50;70.80;;;;;;5068145;28;43913;-70
2022/06/16 04:43:51;;;;;;;8.57;4.20;;;22.50;71.10;;;;;;5068423;28;43953;-70
2022/06/16 04:46:20;;;;;;;6.13;4.77;;;22.70;70.80;;;;;;5067880;28;43956;-69
2022/06/16 04:48:52;;;;;;;5.47;4.03;;;22.90;70.30;;;;;;5067590;28;43959;-70
2022/06/16 04:51:21;;;;;;;4.90;4.00;;;23.10;69.60;;;;;;5068111;28;43852;-69
2022/06/16 04:53:52;;;;;;;5.50;3.70;;;23.30;69.50;;;;;;5068323;28;44194;-70
2022/06/16 04:56:40;;;;;;;6.20;4.57;;;23.50;68.30;;;;;;5063768;28;46676;-70
2022/06/16 04:59:22;;;;;;;6.73;4.33;;;23.60;67.60;;;;;;5067854;28;44962;-69
2022/06/16 05:02:08;;;;;;;7.73;5.07;;;23.80;67.20;;;;;;5067734;28;44002;-70
2022/06/16 05:04:55;;;;;;;6.13;4.40;;;23.90;66.90;;;;;;5066601;28;44103;-70
2022/06/16 05:07:40;;;;;;;9.30;4.83;;;24.00;66.40;;;;;;5067573;28;44149;-69
2022/06/16 05:10:26;;;;;;;6.07;4.70;;;23.90;66.70;;;;;;5069622;28;43987;-70
2022/06/16 05:13:06;;;;;;;7.97;5.07;;;23.70;67.00;;;;;;5067425;28;43351;-70
2022/06/16 05:15:53;;;;;;;6.07;4.50;;;23.50;67.20;;;;;;5067712;28;43971;-69
2022/06/16 05:18:48;;;;;;;7.80;5.23;;;23.30;67.70;;;;;;5066231;28;44646;-69
2022/06/16 05:21:38;;;;;;;7.10;4.97;;;23.10;68.30;;;;;;5067463;28;44450;-69
2022/06/16 05:24:36;;;;;;;5.53;4.67;;;23.00;68.60;;;;;;5048472;28;43936;-70
2022/06/16 05:27:20;;;;;;;6.53;4.80;;;22.90;68.90;;;;;;5067838;28;44045;-69
2022/06/16 05:30:11;;;;;;;6.17;4.57;;;22.80;69.20;;;;;;5062237;28;43963;-70
2022/06/16 05:32:44;;;;;;;5.30;4.77;;;22.70;69.50;;;;;;5066132;28;44438;-69
2022/06/16 05:35:30;;;;;;;4.70;4.23;;;22.70;69.70;;;;;;5065649;28;43902;-69
2022/06/16 05:38:17;;;;;;;6.07;5.33;;;22.60;69.70;;;;;;5067549;28;44046;-69
2022/06/16 05:40:57;;;;;;;6.30;4.90;;;22.60;69.90;;;;;;5061609;28;45835;-71
2022/06/16 05:43:44;;;;;;;5.00;4.60;;;22.50;69.90;;;;;;5065722;28;43935;-69
2022/06/16 05:46:30;;;;;;;5.53;5.00;;;22.50;70.00;;;;;;5068568;28;43902;-70
2022/06/16 05:49:03;;;;;;;4.97;4.57;;;22.50;70.00;;;;;;5061558;28;43522;-68
2022/06/16 05:51:31;;;;;;;6.50;4.77;;;22.50;70.80;;;;;;5066968;28;43958;-69
2022/06/16 05:54:04;;;;;;;7.07;5.17;;;22.50;70.10;;;;;;5067049;28;45151;-70
2022/06/16 05:56:36;;;;;;;5.47;4.07;;;22.50;71.10;;;;;;5066820;28;44092;-69
2022/06/16 05:59:05;;;;;;;4.90;4.27;;;22.60;71.00;;;;;;5067315;28;43990;-69
2022/06/16 06:01:39;;;;;;;5.90;4.70;;;22.80;70.60;;;;;;5066616;28;44023;-69
2022/06/16 06:04:09;;;;;;;4.47;4.17;;;22.90;69.80;;;;;;5066654;28;44053;-69
2022/06/16 06:06:39;;;;;;;5.57;4.63;;;23.20;69.30;;;;;;5066572;28;43901;-69
2022/06/16 06:17:34;;;;;;;5.70;4.50;;;23.80;67.20;;;;;;5068097;28;43432;-70
2022/06/16 06:20:03;;;;;;;4.90;4.47;;;23.90;66.70;;;;;;5065999;28;43944;-70
2022/06/16 06:22:31;;;;;;;5.20;4.50;;;23.80;66.70;;;;;;5061082;28;44074;-71
2022/06/16 06:25:11;;;;;;;4.50;4.10;;;23.70;67.10;;;;;;5066315;28;45095;-69
2022/06/16 06:27:42;;;;;;;4.87;4.47;;;23.50;67.40;;;;;;5066582;28;43962;-69
2022/06/16 06:30:12;;;;;;;4.37;3.97;;;23.30;68.50;;;;;;5068323;28;43987;-70
2022/06/16 06:32:40;;;;;;;4.20;3.90;;;23.10;68.30;;;;;;5066103;28;45926;-69
2022/06/16 06:35:09;;;;;;;4.73;4.33;;;23.00;68.50;;;;;;5066215;28;45362;-68
2022/06/16 06:37:37;;;;;;;4.50;4.10;;;22.90;68.80;;;;;;5066245;28;43962;-70
2022/06/16 06:40:06;;;;;;;4.77;4.17;;;22.80;69.00;;;;;;5066739;28;43881;-70
2022/06/16 06:42:34;;;;;;;4.50;4.10;;;22.70;69.20;;;;;;5067665;28;44071;-69
2022/06/16 06:45:04;;;;;;;4.23;3.93;;;22.70;69.50;;;;;;5065800;28;44059;-70
2022/06/16 06:47:32;;;;;;;4.53;4.20;;;22.60;69.60;;;;;;5067235;28;44072;-70
2022/06/16 06:50:00;;;;;;;4.80;4.50;;;22.60;69.70;;;;;;5067825;28;44021;-70
2022/06/16 06:52:28;;;;;;;4.30;4.00;;;22.50;69.80;;;;;;5067766;28;44923;-70
2022/06/16 06:54:56;;;;;;;4.77;4.37;;;22.50;69.90;;;;;;5067288;28;43988;-69
2022/06/16 06:57:27;;;;;;;4.37;4.00;;;22.50;70.00;;;;;;5067598;28;43912;-70
2022/06/16 06:59:55;;;;;;;4.17;3.87;;;22.50;70.10;;;;;;5068024;28;44046;-69
2022/06/16 07:02:24;;;;;;;4.60;4.27;;;22.50;70.20;;;;;;5065877;28;45733;-69
2022/06/16 07:04:53;;;;;;;4.43;4.07;;;22.50;70.20;;;;;;5067456;28;43892;-69
2022/06/16 07:07:22;;;;;;;4.47;4.07;;;22.40;70.10;;;;;;5067165;28;44061;-69
2022/06/16 07:09:50;;;;;;;4.43;4.20;;;22.40;71.10;;;;;;5067682;28;44028;-70
2022/06/16 07:12:18;;;;;;;4.47;4.13;;;22.50;71.00;;;;;;5067271;28;43963;-68
2022/06/16 07:14:50;;;;;;;4.40;4.10;;;22.70;70.80;;;;;;5067040;28;44200;-69
2022/06/16 07:17:20;;;;;;;4.07;3.83;;;22.90;70.10;;;;;;5066852;28;43945;-70
2022/06/16 07:19:49;;;;;;;4.03;3.83;;;23.10;69.40;;;;;;5067447;28;43806;-70
2022/06/16 07:22:17;;;;;;;3.90;3.70;;;23.30;68.80;;;;;;5067180;28;44322;-69
2022/06/16 07:24:45;;;;;;;4.10;3.90;;;23.50;68.40;;;;;;5067138;28;43894;-70
2022/06/16 07:27:13;;;;;;;3.93;3.73;;;23.60;67.80;;;;;;5066897;28;44033;-69
2022/06/16 07:29:41;;;;;;;4.57;4.23;;;23.70;67.40;;;;;;5067577;28;43982;-70
2022/06/16 07:32:13;;;;;;;3.70;3.40;;;23.80;66.90;;;;;;5066973;28;43860;-70
2022/06/16 07:34:42;;;;;;;3.70;3.50;;;23.90;66.60;;;;;;5066802;28;44097;-69
2022/06/16 07:37:11;;;;;;;4.60;4.20;;;23.90;66.60;;;;;;5066867;28;43960;-70
2022/06/16 07:39:39;;;;;;;4.20;4.00;;;23.70;66.80;;;;;;5067239;28;43454;-70
2022/06/16 07:42:08;;;;;;;4.03;3.73;;;23.60;67.20;;;;;;5066705;28;44882;-70
2022/06/16 07:44:37;;;;;;;3.80;3.60;;;23.40;67.60;;;;;;5066737;28;43999;-69
2022/06/16 07:47:05;;;;;;;3.67;3.40;;;23.20;68.00;;;;;;5066472;28;43973;-70
2022/06/16 07:49:33;;;;;;;3.57;3.27;;;23.10;68.40;;;;;;5066967;28;43836;-69
2022/06/16 07:52:01;;;;;;;3.77;3.53;;;23.00;68.80;;;;;;5066669;28;43885;-70
2022/06/16 07:54:31;;;;;;;4.57;4.30;;;22.80;69.00;;;;;;5066672;28;43999;-69
2022/06/16 07:57:17;;;;;;;3.90;3.70;;;22.80;69.30;;;;;;5070195;28;43873;-70
2022/06/16 07:59:58;;;;;;;3.67;3.47;;;22.70;69.50;;;;;;5070841;28;43344;-70
2022/06/16 08:02:28;;;;;;;3.50;3.30;;;22.60;69.70;;;;;;5070324;28;44971;-70
2022/06/16 08:04:56;;;;;;;3.73;3.53;;;22.60;69.90;;;;;;5070328;28;43967;-69
2022/06/16 08:07:25;;;;;;;3.30;3.20;;;22.60;70.00;;;;;;5070329;28;43403;-70
2022/06/16 08:09:54;;;;;;;3.97;3.77;;;22.50;70.00;;;;;;5070518;28;43901;-69
2022/06/16 08:12:24;;;;;;;3.70;3.50;;;22.50;70.10;;;;;;5070078;28;43836;-70
2022/06/16 08:14:52;;;;;;;3.43;3.23;;;22.50;70.20;;;;;;5069602;28;44066;-70
2022/06/16 08:17:22;;;;;;;4.00;3.80;;;22.50;70.30;;;;;;5069779;28;44067;-69
2022/06/16 08:19:50;;;;;;;3.70;3.50;;;22.50;70.30;;;;;;5070199;28;43865;-69
2022/06/16 08:22:18;;;;;;;3.60;3.40;;;22.50;70.80;;;;;;5069836;28;43991;-71
2022/06/16 08:24:47;;;;;;;3.70;3.40;;;22.50;71.20;;;;;;5069776;28;43830;-69
2022/06/16 08:27:17;;;;;;;3.70;3.50;;;22.70;70.90;;;;;;5069868;28;43927;-70
2022/06/16 08:29:45;;;;;;;3.20;3.10;;;22.80;70.30;;;;;;5070207;28;43989;-69
2022/06/16 08:32:14;;;;;;;3.50;3.30;;;23.00;69.70;;;;;;5069605;28;44032;-70
2022/06/16 08:34:46;;;;;;;3.20;3.10;;;23.20;69.10;;;;;;5069615;28;43995;-69
2022/06/16 08:37:14;;;;;;;3.53;3.33;;;23.40;68.70;;;;;;5069863;28;44043;-70
2022/06/16 08:39:42;;;;;;;3.20;3.00;;;23.50;68.00;;;;;;5070048;28;43439;-69
2022/06/16 08:42:11;;;;;;;3.50;3.20;;;23.60;67.60;;;;;;5069521;28;43913;-70
2022/06/16 08:44:42;;;;;;;3.27;3.07;;;23.80;67.30;;;;;;5069510;28;43939;-69
2022/06/16 08:47:15;;;;;;;3.60;3.40;;;23.80;66.90;;;;;;5069411;28;43984;-70
2022/06/16 08:49:46;;;;;;;3.17;3.07;;;23.70;67.00;;;;;;5070096;28;43936;-69
2022/06/16 08:52:19;;;;;;;3.57;3.37;;;23.60;67.50;;;;;;5069752;28;44015;-70
2022/06/16 08:54:58;;;;;;;3.00;2.90;;;23.40;67.80;;;;;;5061843;28;45063;-69
2022/06/16 08:57:38;;;;;;;3.10;3.00;;;23.20;68.30;;;;;;5069435;28;43371;-69
2022/06/16 09:00:08;;;;;;;3.20;3.10;;;23.10;68.70;;;;;;5069707;28;43975;-70
2022/06/16 09:02:41;;;;;;;3.23;3.10;;;22.90;68.90;;;;;;5069332;28;44804;-70
2022/06/16 09:05:14;;;;;;;3.00;2.90;;;22.80;69.20;;;;;;5069300;28;44007;-69
2022/06/16 09:07:46;;;;;;;3.47;3.27;;;22.70;69.50;;;;;;5069153;28;43922;-69
2022/06/16 09:10:24;;;;;;;3.20;3.10;;;22.70;69.70;;;;;;5069551;28;43935;-69
2022/06/16 09:13:12;;;;;;;3.00;2.90;;;22.60;69.80;;;;;;5062683;28;43611;-70
2022/06/16 09:15:43;;;;;;;2.77;2.67;;;22.60;70.00;;;;;;5069041;28;43435;-69
2022/06/16 09:18:27;;;;;;;3.10;3.00;;;22.50;70.10;;;;;;5069094;28;43954;-69
2022/06/16 09:20:59;;;;;;;3.20;3.00;;;22.50;70.20;;;;;;5069652;28;43907;-70
2022/06/16 09:23:40;;;;;;;2.83;2.73;;;22.50;70.20;;;;;;5069044;28;44145;-69
2022/06/16 09:26:15;;;;;;;3.00;2.90;;;22.50;70.30;;;;;;5064067;28;44438;-70
2022/06/16 09:28:47;;;;;;;2.90;2.80;;;22.50;70.30;;;;;;5067028;28;44013;-69
2022/06/16 09:31:19;;;;;;;3.13;3.03;;;22.50;70.40;;;;;;5069464;28;43769;-70
2022/06/16 09:33:50;;;;;;;3.03;2.87;;;22.50;70.40;;;;;;5062784;28;44019;-68
2022/06/16 09:36:19;;;;;;;2.80;2.70;;;22.50;71.20;;;;;;5067163;28;44977;-69
2022/06/16 09:38:49;;;;;;;2.90;2.80;;;22.50;71.20;;;;;;5068682;28;44031;-69
2022/06/16 09:44:06;;;;;;;2.87;2.77;;;22.90;70.40;;;;;;5068788;28;44258;-70
2022/06/16 09:46:39;;;;;;;2.87;2.77;;;23.10;69.80;;;;;;5068689;28;43450;-70
2022/06/16 09:49:11;;;;;;;2.67;2.57;;;23.20;69.10;;;;;;5068485;28;43848;-69
2022/06/16 09:51:41;;;;;;;3.27;3.17;;;23.40;68.70;;;;;;5069220;28;43963;-69
2022/06/16 09:54:13;;;;;;;2.73;2.63;;;23.50;68.10;;;;;;5068229;28;43967;-70
2022/06/16 09:56:44;;;;;;;2.60;2.50;;;23.70;67.80;;;;;;5068328;28;44018;-69
2022/06/16 09:59:16;;;;;;;3.10;3.00;;;23.80;67.40;;;;;;5062179;28;43345;-70
2022/06/16 10:01:47;;;;;;;3.10;3.00;;;23.90;67.10;;;;;;5062952;28;44051;-70
2022/06/16 10:04:15;;;;;;;3.07;2.97;;;23.80;67.00;;;;;;5068412;28;43902;-69
2022/06/16 10:06:50;;;;;;;2.90;2.80;;;23.70;67.40;;;;;;5068203;28;43994;-69
2022/06/16 10:09:23;;;;;;;2.83;2.73;;;23.50;67.90;;;;;;5066693;28;43946;-69
2022/06/16 10:11:58;;;;;;;2.40;2.30;;;23.40;68.20;;;;;;5068671;28;43971;-70
2022/06/16 10:14:28;;;;;;;2.70;2.60;;;23.20;68.40;;;;;;5068042;28;44003;-70
2022/06/16 10:16:59;;;;;;;2.83;2.73;;;23.10;68.70;;;;;;5068239;28;43880;-70
2022/06/16 10:19:30;;;;;;;2.83;2.73;;;23.00;69.10;;;;;;5067605;28;43879;-69
2022/06/16 10:21:59;;;;;;;2.83;2.73;;;22.90;69.40;;;;;;5068668;28;43924;-70
2022/06/16 10:24:28;;;;;;;2.70;2.60;;;22.80;69.60;;;;;;5068167;28;43975;-70
2022/06/16 10:27:00;;;;;;;2.70;2.60;;;22.70;69.80;;;;;;5068117;28;43486;-69
2022/06/16 10:29:29;;;;;;;2.50;2.50;;;22.70;70.00;;;;;;5068262;28;43989;-70
2022/06/16 10:32:00;;;;;;;2.50;2.50;;;22.70;70.20;;;;;;5068113;28;43777;-70
2022/06/16 10:34:30;;;;;;;2.63;2.53;;;22.60;70.20;;;;;;5067973;28;45054;-69
2022/06/16 10:37:02;;;;;;;2.47;2.37;;;22.60;70.30;;;;;;5067952;28;44199;-70
2022/06/16 10:39:36;;;;;;;2.63;2.53;;;22.60;70.30;;;;;;5061459;28;43987;-69
2022/06/16 10:42:06;;;;;;;2.50;2.47;;;22.60;70.40;;;;;;5062854;28;44110;-70
2022/06/16 10:44:34;;;;;;;2.47;2.47;;;22.60;70.50;;;;;;5067971;28;43611;-70
2022/06/16 10:47:07;;;;;;;2.77;2.67;;;22.60;70.60;;;;;;5067577;28;43366;-69
2022/06/16 10:49:37;;;;;;;2.50;2.47;;;22.60;71.10;;;;;;5067473;28;44100;-69
2022/06/16 10:52:09;;;;;;;2.60;2.50;;;22.60;71.10;;;;;;5067960;28;44035;-69
2022/06/16 10:54:38;;;;;;;2.73;2.63;;;22.70;71.00;;;;;;5067523;28;43975;-70
2022/06/16 10:57:11;;;;;;;2.30;2.30;;;22.90;70.50;;;;;;5067574;28;43888;-69
2022/06/16 10:59:41;;;;;;;2.23;2.23;;;23.10;70.00;;;;;;5067578;28;44078;-70
2022/06/16 11:02:20;;;;;;;2.70;2.60;;;23.20;69.40;;;;;;5067819;28;43888;-70
2022/06/16 11:04:51;;;;;;;2.80;2.70;;;23.40;68.90;;;;;;5067386;28;43968;-69
2022/06/16 11:07:21;;;;;;;2.33;2.33;;;23.60;68.40;;;;;;5067293;28;43991;-70
2022/06/16 11:09:49;;;;;;;2.53;2.43;;;23.70;67.80;;;;;;5067287;28;44034;-70
2022/06/16 11:12:18;;;;;;;2.40;2.40;;;23.80;67.40;;;;;;5067561;28;43923;-70
2022/06/16 11:14:48;;;;;;;2.37;2.27;;;23.70;67.40;;;;;;5066934;28;44972;-70
2022/06/16 11:17:20;;;;;;;2.33;2.33;;;23.70;67.70;;;;;;5067135;28;44008;-70
2022/06/16 11:19:50;;;;;;;2.23;2.23;;;23.50;68.10;;;;;;5067066;28;43950;-70
2022/06/16 11:22:19;;;;;;;2.33;2.33;;;23.30;68.30;;;;;;5067563;28;43894;-69
2022/06/16 11:24:53;;;;;;;2.50;2.40;;;23.20;68.50;;;;;;5067063;28;43904;-70
2022/06/16 11:27:21;;;;;;;2.30;2.20;;;23.10;68.90;;;;;;5067003;28;44019;-69
2022/06/16 11:29:49;;;;;;;2.43;2.33;;;23.00;69.20;;;;;;5066114;28;44039;-70
2022/06/16 11:32:20;;;;;;;2.37;2.27;;;22.90;69.50;;;;;;5067497;28;43942;-69
2022/06/16 11:34:48;;;;;;;2.40;2.40;;;22.80;69.70;;;;;;5066956;28;44902;-70
2022/06/16 11:37:46;;;;;;;2.50;2.40;;;22.80;70.00;;;;;;5066899;28;43402;-69
2022/06/16 11:40:23;;;;;;;2.23;2.23;;;22.70;70.10;;;;;;5032308;28;44050;-69
2022/06/16 11:43:21;;;;;;;2.47;2.37;;;22.70;70.20;;;;;;5061961;28;43937;-69
2022/06/16 11:45:52;;;;;;;2.17;2.17;;;22.60;70.30;;;;;;5066325;28;43896;-69
2022/06/16 11:48:25;;;;;;;2.17;2.17;;;22.60;70.30;;;;;;5066411;28;44063;-70
2022/06/16 11:50:58;;;;;;;2.30;2.30;;;22.60;70.40;;;;;;5066819;28;43447;-69
2022/06/16 11:53:42;;;;;;;2.43;2.33;;;22.60;70.50;;;;;;5060826;28;43973;-69
2022/06/16 11:56:14;;;;;;;2.30;2.30;;;22.60;70.50;;;;;;5066723;28;43864;-70
2022/06/16 11:58:52;;;;;;;2.33;2.23;;;22.60;71.20;;;;;;5065410;28;43962;-69
2022/06/16 12:01:22;;;;;;;2.40;2.40;;;22.50;70.80;;;;;;5066658;28;44033;-69
2022/06/16 12:04:12;;;;;;;2.20;2.20;;;22.60;71.40;;;;;;5066976;28;43425;-69
2022/06/16 12:06:57;;;;;;;1.90;1.90;;;22.70;71.00;;;;;;5066467;28;43983;-70
2022/06/16 12:09:32;;;;;;;2.07;2.07;;;22.90;70.60;;;;;;5066694;28;43955;-70
2022/06/16 12:12:04;;;;;;;2.07;2.07;;;23.10;70.00;;;;;;5066345;28;43991;-70
2022/06/16 12:14:34;;;;;;;2.40;2.30;;;23.20;69.40;;;;;;5065165;28;44194;-70
2022/06/16 12:17:07;;;;;;;2.17;2.17;;;23.40;69.00;;;;;;5066228;28;44038;-69
2022/06/16 12:19:42;;;;;;;2.10;2.00;;;23.50;68.40;;;;;;5066396;28;43993;-69
2022/06/16 12:22:15;;;;;;;2.03;2.03;;;23.70;68.00;;;;;;5066462;28;44154;-69
2022/06/16 12:24:47;;;;;;;2.20;2.20;;;23.80;67.50;;;;;;5060543;28;43347;-70
2022/06/16 12:27:16;;;;;;;2.30;2.20;;;23.80;67.30;;;;;;5066227;28;43951;-70
2022/06/16 12:29:46;;;;;;;1.97;1.97;;;23.80;67.60;;;;;;5065938;28;43987;-70
2022/06/16 12:32:22;;;;;;;2.20;2.20;;;23.60;67.90;;;;;;5066165;28;43889;-70
2022/06/16 12:35:01;;;;;;;1.90;1.90;;;23.40;68.20;;;;;;5066582;28;43840;-69
2022/06/16 12:37:32;;;;;;;1.67;1.67;;;23.30;68.50;;;;;;5066356;28;43969;-70
2022/06/16 12:40:03;;;;;;;1.80;1.80;;;23.10;68.80;;;;;;5065843;28;43812;-69
2022/06/16 12:42:33;;;;;;;2.10;2.10;;;23.00;69.10;;;;;;5068765;28;43508;-69
2022/06/16 12:45:03;;;;;;;2.00;2.00;;;22.90;69.60;;;;;;5070132;28;43940;-70
2022/06/16 12:47:36;;;;;;;1.97;1.97;;;22.80;69.70;;;;;;5067942;28;47512;-69
2022/06/16 12:50:08;;;;;;;2.07;2.07;;;22.80;70.00;;;;;;5069536;28;43939;-70
2022/06/16 12:52:39;;;;;;;1.97;1.97;;;22.70;70.10;;;;;;5069518;28;43957;-70
2022/06/16 12:55:08;;;;;;;2.07;1.97;;;22.70;70.30;;;;;;5063601;28;43939;-69
2022/06/16 12:57:37;;;;;;;1.97;1.97;;;22.60;70.30;;;;;;5058273;28;45382;-69
2022/06/16 13:00:09;;;;;;;1.77;1.77;;;22.60;70.40;;;;;;5069245;28;43821;-69
2022/06/16 13:02:40;;;;;;;2.03;2.03;;;22.60;70.60;;;;;;5069103;28;43328;-70
2022/06/16 13:05:10;;;;;;;2.00;2.00;;;22.60;70.60;;;;;;5069674;28;43879;-69
2022/06/16 13:07:39;;;;;;;2.03;2.03;;;22.60;70.60;;;;;;5069064;28;44806;-70
2022/06/16 13:10:08;;;;;;;2.40;2.00;;;22.60;70.90;;;;;;5069244;28;44003;-70
2022/06/16 13:12:39;;;;;;;2.20;2.00;;;22.60;70.70;;;;;;5069111;28;43920;-69
2022/06/16 13:15:10;;;;;;;2.30;2.20;;;22.50;70.80;;;;;;5069549;28;43956;-69
2022/06/16 13:17:47;;;;;;;2.10;2.00;;;22.60;71.50;;;;;;5068956;28;43901;-69
2022/06/16 13:20:18;;;;;;;1.80;1.80;;;22.70;71.30;;;;;;5069074;28;43897;-69
2022/06/16 13:22:50;;;;;;;2.10;2.00;;;22.80;70.90;;;;;;5067501;28;43347;-69
2022/06/16 13:25:40;;;;;;;1.80;1.80;;;23.00;70.30;;;;;;5069405;28;43947;-69
2022/06/16 13:28:11;;;;;;;2.00;1.90;;;23.20;69.70;;;;;;5068778;28;45106;-69
2022/06/16 13:30:40;;;;;;;2.00;2.00;;;23.40;69.30;;;;;;5068795;28;43564;-69
2022/06/16 13:33:23;;;;;;;2.03;1.90;;;23.50;68.70;;;;;;5068958;28;44290;-71
2022/06/16 13:36:12;;;;;;;1.83;1.83;;;23.70;68.20;;;;;;5069173;28;44137;-70
2022/06/16 13:38:45;;;;;;;2.43;2.00;;;23.80;67.80;;;;;;5068857;28;43769;-69